sensor_id;sensor_type;location;lat;lon;timestamp;temperature;humidity
6178;DHT22;3122;48.208;11.174;2022-12-18T00:00:50;-4.70;1.00
6178;DHT22;3122;48.208;11.174;2022-12-18T00:05:52;-4.60;1.00
6178;DHT22;3122;48.208;11.174;2022-12-18T00:10:52;-4.70;1.00
6178;DHT22;3122;48.208;11.174;2022-12-18T00:15:53;-4.80;1.00
6178;DHT22;3122;48.208;11.174;2022-12-18T00:20:53;-4.70;1.00
6178;DHT22;3122;48.208;11.174;2022-12-18T00:25:54;-4.80;1.00
6178;DHT22;3122;48.208;11.174;2022-12-18T00:31:02;-4.80;1.00
6178;DHT22;3122;48.208;11.174;2022-12-18T00:36:10;-4.80;1.00
6178;DHT22;3122;48.208;11.174;2022-12-18T00:41:12;-4.80;1.00
6178;DHT22;3122;48.208;11.174;2022-12-18T00:46:13;-4.80;1.00
6178;DHT22;3122;48.208;11.174;2022-12-18T00:51:13;-4.80;1.00
6178;DHT22;3122;48.208;11.174;2022-12-18T00:56:14;-4.80;1.00
6178;DHT22;3122;48.208;11.174;2022-12-18T01:01:15;-4.90;1.00
6178;DHT22;3122;48.208;11.174;2022-12-18T01:06:16;-5.00;1.00
6178;DHT22;3122;48.208;11.174;2022-12-18T01:11:19;-5.10;1.00
6178;DHT22;3122;48.208;11.174;2022-12-18T01:16:20;-5.20;1.00
6178;DHT22;3122;48.208;11.174;2022-12-18T01:21:22;-5.20;1.00
6178;DHT22;3122;48.208;11.174;2022-12-18T01:26:23;-5.30;1.00
6178;DHT22;3122;48.208;11.174;2022-12-18T01:31:28;-5.30;1.00
6178;DHT22;3122;48.208;11.174;2022-12-18T01:36:34;-5.30;1.00
6178;DHT22;3122;48.208;11.174;2022-12-18T01:41:35;-5.30;1.00
6178;DHT22;3122;48.208;11.174;2022-12-18T01:46:54;-5.30;1.00
6178;DHT22;3122;48.208;11.174;2022-12-18T01:51:55;-5.30;1.00
6178;DHT22;3122;48.208;11.174;2022-12-18T01:56:55;-5.40;1.00
6178;DHT22;3122;48.208;11.174;2022-12-18T02:01:56;-5.40;1.00
6178;DHT22;3122;48.208;11.174;2022-12-18T02:12:28;-5.50;1.00
6178;DHT22;3122;48.208;11.174;2022-12-18T02:23:17;-5.60;1.00
6178;DHT22;3122;48.208;11.174;2022-12-18T02:28:23;-5.70;1.00
6178;DHT22;3122;48.208;11.174;2022-12-18T02:33:25;-5.60;1.00
6178;DHT22;3122;48.208;11.174;2022-12-18T02:38:28;-5.60;1.00
6178;DHT22;3122;48.208;11.174;2022-12-18T02:43:30;-5.60;1.00
6178;DHT22;3122;48.208;11.174;2022-12-18T02:48:32;-5.60;1.00
6178;DHT22;3122;48.208;11.174;2022-12-18T02:53:39;-5.60;1.00
6178;DHT22;3122;48.208;11.174;2022-12-18T02:59:03;-5.50;1.00
6178;DHT22;3122;48.208;11.174;2022-12-18T03:04:22;-5.40;1.00
6178;DHT22;3122;48.208;11.174;2022-12-18T03:09:33;-5.50;1.00
6178;DHT22;3122;48.208;11.174;2022-12-18T03:14:35;-5.40;1.00
6178;DHT22;3122;48.208;11.174;2022-12-18T03:19:38;-5.40;1.00
6178;DHT22;3122;48.208;11.174;2022-12-18T03:24:40;-5.40;1.00
6178;DHT22;3122;48.208;11.174;2022-12-18T03:29:45;-5.40;1.00
6178;DHT22;3122;48.208;11.174;2022-12-18T03:34:49;-5.30;1.00
6178;DHT22;3122;48.208;11.174;2022-12-18T03:39:51;-5.40;1.00
6178;DHT22;3122;48.208;11.174;2022-12-18T03:45:05;-5.30;1.00
6178;DHT22;3122;48.208;11.174;2022-12-18T03:50:13;-5.20;1.00
6178;DHT22;3122;48.208;11.174;2022-12-18T03:55:15;-5.10;1.00
6178;DHT22;3122;48.208;11.174;2022-12-18T04:00:18;-5.00;1.00
6178;DHT22;3122;48.208;11.174;2022-12-18T04:05:19;-5.00;1.00
6178;DHT22;3122;48.208;11.174;2022-12-18T04:10:20;-5.00;1.00
6178;DHT22;3122;48.208;11.174;2022-12-18T04:15:21;-5.10;1.00
6178;DHT22;3122;48.208;11.174;2022-12-18T04:20:21;-5.10;1.00
6178;DHT22;3122;48.208;11.174;2022-12-18T04:25:22;-5.00;1.00
6178;DHT22;3122;48.208;11.174;2022-12-18T04:30:22;-5.10;1.00
6178;DHT22;3122;48.208;11.174;2022-12-18T04:35:23;-5.20;1.00
6178;DHT22;3122;48.208;11.174;2022-12-18T04:40:24;-5.20;1.00
6178;DHT22;3122;48.208;11.174;2022-12-18T04:45:24;-5.20;1.00
6178;DHT22;3122;48.208;11.174;2022-12-18T04:50:25;-5.30;1.00
6178;DHT22;3122;48.208;11.174;2022-12-18T04:55:26;-5.30;1.00
6178;DHT22;3122;48.208;11.174;2022-12-18T05:00:26;-5.20;1.00
6178;DHT22;3122;48.208;11.174;2022-12-18T05:05:27;-5.30;1.00
6178;DHT22;3122;48.208;11.174;2022-12-18T05:10:27;-5.30;1.00
6178;DHT22;3122;48.208;11.174;2022-12-18T05:15:29;-5.30;1.00
6178;DHT22;3122;48.208;11.174;2022-12-18T05:20:31;-5.30;1.00
6178;DHT22;3122;48.208;11.174;2022-12-18T05:25:32;-5.30;1.00
6178;DHT22;3122;48.208;11.174;2022-12-18T05:30:32;-5.30;1.00
6178;DHT22;3122;48.208;11.174;2022-12-18T05:35:33;-5.30;1.00
6178;DHT22;3122;48.208;11.174;2022-12-18T05:40:33;-5.20;1.00
6178;DHT22;3122;48.208;11.174;2022-12-18T05:45:37;-5.20;1.00
6178;DHT22;3122;48.208;11.174;2022-12-18T05:50:39;-5.20;1.00
6178;DHT22;3122;48.208;11.174;2022-12-18T05:55:41;-5.30;1.00
6178;DHT22;3122;48.208;11.174;2022-12-18T06:00:44;-5.20;1.00
6178;DHT22;3122;48.208;11.174;2022-12-18T06:05:45;-5.30;1.00
6178;DHT22;3122;48.208;11.174;2022-12-18T06:10:50;-5.20;1.00
6178;DHT22;3122;48.208;11.174;2022-12-18T06:15:52;-5.20;1.00
6178;DHT22;3122;48.208;11.174;2022-12-18T06:20:56;-5.20;1.00
6178;DHT22;3122;48.208;11.174;2022-12-18T06:25:57;-5.10;1.00
6178;DHT22;3122;48.208;11.174;2022-12-18T06:30:58;-5.10;1.00
6178;DHT22;3122;48.208;11.174;2022-12-18T06:36:10;-5.10;1.00
6178;DHT22;3122;48.208;11.174;2022-12-18T06:41:13;-5.10;1.00
6178;DHT22;3122;48.208;11.174;2022-12-18T06:46:14;-5.10;1.00
6178;DHT22;3122;48.208;11.174;2022-12-18T06:51:23;-5.20;1.00
6178;DHT22;3122;48.208;11.174;2022-12-18T06:56:24;-5.20;1.00
6178;DHT22;3122;48.208;11.174;2022-12-18T07:01:24;-5.10;1.00
6178;DHT22;3122;48.208;11.174;2022-12-18T07:06:26;-5.10;1.00
6178;DHT22;3122;48.208;11.174;2022-12-18T07:11:26;-5.00;1.00
6178;DHT22;3122;48.208;11.174;2022-12-18T07:16:27;-5.00;1.00
6178;DHT22;3122;48.208;11.174;2022-12-18T07:21:30;-5.10;1.00
6178;DHT22;3122;48.208;11.174;2022-12-18T07:26:31;-5.00;1.00
6178;DHT22;3122;48.208;11.174;2022-12-18T07:31:31;-4.90;1.00
6178;DHT22;3122;48.208;11.174;2022-12-18T07:36:32;-4.90;1.00
6178;DHT22;3122;48.208;11.174;2022-12-18T07:41:33;-4.80;1.00
6178;DHT22;3122;48.208;11.174;2022-12-18T07:46:33;-4.90;1.00
6178;DHT22;3122;48.208;11.174;2022-12-18T07:51:34;-5.00;1.00
6178;DHT22;3122;48.208;11.174;2022-12-18T07:56:34;-5.00;1.00
6178;DHT22;3122;48.208;11.174;2022-12-18T08:01:35;-5.00;1.00
6178;DHT22;3122;48.208;11.174;2022-12-18T08:06:36;-4.90;1.00
6178;DHT22;3122;48.208;11.174;2022-12-18T08:11:36;-4.80;1.00
6178;DHT22;3122;48.208;11.174;2022-12-18T08:16:37;-4.90;1.00
6178;DHT22;3122;48.208;11.174;2022-12-18T08:21:40;-4.90;1.00
6178;DHT22;3122;48.208;11.174;2022-12-18T08:26:41;-4.90;1.00
6178;DHT22;3122;48.208;11.174;2022-12-18T08:31:41;-4.90;1.00
6178;DHT22;3122;48.208;11.174;2022-12-18T08:36:42;-4.90;1.00
6178;DHT22;3122;48.208;11.174;2022-12-18T08:41:42;-4.90;1.00
6178;DHT22;3122;48.208;11.174;2022-12-18T08:47:04;-4.90;1.00
6178;DHT22;3122;48.208;11.174;2022-12-18T08:52:05;-5.00;1.00
6178;DHT22;3122;48.208;11.174;2022-12-18T08:57:05;-4.80;1.00
6178;DHT22;3122;48.208;11.174;2022-12-18T09:02:06;-4.80;1.00
6178;DHT22;3122;48.208;11.174;2022-12-18T09:07:06;-4.70;1.00
6178;DHT22;3122;48.208;11.174;2022-12-18T09:12:07;-4.70;1.00
6178;DHT22;3122;48.208;11.174;2022-12-18T09:17:07;-4.60;1.00
6178;DHT22;3122;48.208;11.174;2022-12-18T09:22:08;-4.70;1.00
6178;DHT22;3122;48.208;11.174;2022-12-18T09:27:09;-4.80;1.00
6178;DHT22;3122;48.208;11.174;2022-12-18T09:32:10;-4.70;1.00
6178;DHT22;3122;48.208;11.174;2022-12-18T09:37:10;-4.70;1.00
6178;DHT22;3122;48.208;11.174;2022-12-18T09:42:22;-4.60;1.00
6178;DHT22;3122;48.208;11.174;2022-12-18T09:47:34;-4.50;1.00
6178;DHT22;3122;48.208;11.174;2022-12-18T09:52:40;-4.30;1.00
6178;DHT22;3122;48.208;11.174;2022-12-18T09:57:53;-4.20;1.00
6178;DHT22;3122;48.208;11.174;2022-12-18T10:03:14;-4.30;1.00
6178;DHT22;3122;48.208;11.174;2022-12-18T10:08:26;-4.40;1.00
6178;DHT22;3122;48.208;11.174;2022-12-18T10:13:52;-4.30;1.00
6178;DHT22;3122;48.208;11.174;2022-12-18T10:19:08;-4.20;1.00
6178;DHT22;3122;48.208;11.174;2022-12-18T10:24:37;-4.00;1.00
6178;DHT22;3122;48.208;11.174;2022-12-18T10:29:42;-4.10;1.00
6178;DHT22;3122;48.208;11.174;2022-12-18T10:34:50;-4.10;1.00
6178;DHT22;3122;48.208;11.174;2022-12-18T10:40:13;-4.20;1.00
6178;DHT22;3122;48.208;11.174;2022-12-18T10:45:16;-4.10;1.00
6178;DHT22;3122;48.208;11.174;2022-12-18T10:50:24;-4.00;1.00
6178;DHT22;3122;48.208;11.174;2022-12-18T10:55:38;-4.20;1.00
6178;DHT22;3122;48.208;11.174;2022-12-18T11:00:41;-4.20;1.00
6178;DHT22;3122;48.208;11.174;2022-12-18T11:05:41;-4.10;1.00
6178;DHT22;3122;48.208;11.174;2022-12-18T11:10:46;-4.20;1.00
6178;DHT22;3122;48.208;11.174;2022-12-18T11:15:48;-4.00;1.00
6178;DHT22;3122;48.208;11.174;2022-12-18T11:21:14;-4.00;1.00
6178;DHT22;3122;48.208;11.174;2022-12-18T11:26:15;-4.10;1.00
6178;DHT22;3122;48.208;11.174;2022-12-18T11:36:28;-3.80;1.00
6178;DHT22;3122;48.208;11.174;2022-12-18T11:41:38;-3.60;1.00
6178;DHT22;3122;48.208;11.174;2022-12-18T11:47:03;-3.60;1.00
6178;DHT22;3122;48.208;11.174;2022-12-18T11:52:35;-3.50;1.00
6178;DHT22;3122;48.208;11.174;2022-12-18T12:07:55;-3.90;1.00
6178;DHT22;3122;48.208;11.174;2022-12-18T12:23:35;-3.90;1.00
6178;DHT22;3122;48.208;11.174;2022-12-18T12:39:39;-4.00;1.00
6178;DHT22;3122;48.208;11.174;2022-12-18T12:44:57;-4.10;1.00
6178;DHT22;3122;48.208;11.174;2022-12-18T12:50:01;-4.20;1.00
6178;DHT22;3122;48.208;11.174;2022-12-18T12:55:05;-4.20;1.00
6178;DHT22;3122;48.208;11.174;2022-12-18T13:10:42;-4.10;1.00
6178;DHT22;3122;48.208;11.174;2022-12-18T13:16:06;-4.20;1.00
6178;DHT22;3122;48.208;11.174;2022-12-18T13:21:33;-4.20;1.00
6178;DHT22;3122;48.208;11.174;2022-12-18T13:26:34;-4.30;1.00
6178;DHT22;3122;48.208;11.174;2022-12-18T13:36:47;-4.50;1.00
6178;DHT22;3122;48.208;11.174;2022-12-18T13:47:36;-4.60;1.00
6178;DHT22;3122;48.208;11.174;2022-12-18T13:52:40;-4.60;1.00
6178;DHT22;3122;48.208;11.174;2022-12-18T13:57:43;-4.70;1.00
6178;DHT22;3122;48.208;11.174;2022-12-18T14:02:45;-4.70;1.00
6178;DHT22;3122;48.208;11.174;2022-12-18T14:07:46;-4.70;1.00
6178;DHT22;3122;48.208;11.174;2022-12-18T14:12:50;-4.60;1.00
6178;DHT22;3122;48.208;11.174;2022-12-18T14:18:02;-4.60;1.00
6178;DHT22;3122;48.208;11.174;2022-12-18T14:23:03;-4.70;1.00
6178;DHT22;3122;48.208;11.174;2022-12-18T14:33:22;-4.60;1.00
6178;DHT22;3122;48.208;11.174;2022-12-18T14:38:28;-4.50;1.00
6178;DHT22;3122;48.208;11.174;2022-12-18T14:43:32;-4.60;1.00
6178;DHT22;3122;48.208;11.174;2022-12-18T14:48:34;-4.70;1.00
6178;DHT22;3122;48.208;11.174;2022-12-18T14:53:38;-4.70;1.00
6178;DHT22;3122;48.208;11.174;2022-12-18T14:58:48;-4.70;1.00
6178;DHT22;3122;48.208;11.174;2022-12-18T15:03:51;-4.70;1.00
6178;DHT22;3122;48.208;11.174;2022-12-18T15:08:52;-4.70;1.00
6178;DHT22;3122;48.208;11.174;2022-12-18T15:13:53;-4.70;1.00
6178;DHT22;3122;48.208;11.174;2022-12-18T15:18:53;-4.90;1.00
6178;DHT22;3122;48.208;11.174;2022-12-18T15:23:54;-4.80;1.00
6178;DHT22;3122;48.208;11.174;2022-12-18T15:28:57;-4.80;1.00
6178;DHT22;3122;48.208;11.174;2022-12-18T15:34:14;-4.80;1.00
6178;DHT22;3122;48.208;11.174;2022-12-18T15:39:18;-4.80;1.00
6178;DHT22;3122;48.208;11.174;2022-12-18T15:44:23;-4.80;1.00
6178;DHT22;3122;48.208;11.174;2022-12-18T15:49:25;-4.70;1.00
6178;DHT22;3122;48.208;11.174;2022-12-18T15:54:26;-4.70;1.00
6178;DHT22;3122;48.208;11.174;2022-12-18T15:59:47;-4.60;1.00
6178;DHT22;3122;48.208;11.174;2022-12-18T16:04:48;-4.70;1.00
6178;DHT22;3122;48.208;11.174;2022-12-18T16:09:48;-4.70;1.00
6178;DHT22;3122;48.208;11.174;2022-12-18T16:14:49;-4.80;1.00
6178;DHT22;3122;48.208;11.174;2022-12-18T16:19:49;-4.80;1.00
6178;DHT22;3122;48.208;11.174;2022-12-18T16:24:52;-4.90;1.00
6178;DHT22;3122;48.208;11.174;2022-12-18T16:29:53;-4.90;1.00
6178;DHT22;3122;48.208;11.174;2022-12-18T16:34:53;-4.80;1.00
6178;DHT22;3122;48.208;11.174;2022-12-18T16:39:59;-4.90;1.00
6178;DHT22;3122;48.208;11.174;2022-12-18T16:44:59;-4.90;1.00
6178;DHT22;3122;48.208;11.174;2022-12-18T16:50:00;-4.90;1.00
6178;DHT22;3122;48.208;11.174;2022-12-18T16:55:01;-4.80;1.00
6178;DHT22;3122;48.208;11.174;2022-12-18T17:00:03;-4.90;1.00
6178;DHT22;3122;48.208;11.174;2022-12-18T17:05:04;-4.80;1.00
6178;DHT22;3122;48.208;11.174;2022-12-18T17:10:05;-4.70;1.00
6178;DHT22;3122;48.208;11.174;2022-12-18T17:15:06;-4.80;1.00
6178;DHT22;3122;48.208;11.174;2022-12-18T17:20:07;-4.90;1.00
6178;DHT22;3122;48.208;11.174;2022-12-18T17:25:08;-5.00;1.00
6178;DHT22;3122;48.208;11.174;2022-12-18T17:30:09;-4.90;1.00
6178;DHT22;3122;48.208;11.174;2022-12-18T17:35:10;-4.90;1.00
6178;DHT22;3122;48.208;11.174;2022-12-18T17:40:11;-4.80;1.00
6178;DHT22;3122;48.208;11.174;2022-12-18T17:45:11;-4.80;1.00
6178;DHT22;3122;48.208;11.174;2022-12-18T17:50:12;-4.80;1.00
6178;DHT22;3122;48.208;11.174;2022-12-18T17:55:13;-4.90;1.00
6178;DHT22;3122;48.208;11.174;2022-12-18T18:00:14;-4.90;1.00
6178;DHT22;3122;48.208;11.174;2022-12-18T18:05:15;-4.90;1.00
6178;DHT22;3122;48.208;11.174;2022-12-18T18:10:16;-4.90;1.00
6178;DHT22;3122;48.208;11.174;2022-12-18T18:15:17;-4.90;1.00
6178;DHT22;3122;48.208;11.174;2022-12-18T18:20:17;-4.90;1.00
6178;DHT22;3122;48.208;11.174;2022-12-18T18:25:18;-5.00;1.00
6178;DHT22;3122;48.208;11.174;2022-12-18T18:30:18;-5.00;1.00
6178;DHT22;3122;48.208;11.174;2022-12-18T18:35:19;-5.00;1.00
6178;DHT22;3122;48.208;11.174;2022-12-18T18:40:19;-5.10;1.00
6178;DHT22;3122;48.208;11.174;2022-12-18T18:45:20;-5.20;1.00
6178;DHT22;3122;48.208;11.174;2022-12-18T18:50:21;-5.30;1.00
6178;DHT22;3122;48.208;11.174;2022-12-18T18:55:21;-5.30;1.00
6178;DHT22;3122;48.208;11.174;2022-12-18T19:00:22;-5.30;1.00
6178;DHT22;3122;48.208;11.174;2022-12-18T19:05:22;-5.20;1.00
6178;DHT22;3122;48.208;11.174;2022-12-18T19:10:23;-5.20;1.00
6178;DHT22;3122;48.208;11.174;2022-12-18T19:15:24;-5.20;1.00
6178;DHT22;3122;48.208;11.174;2022-12-18T19:20:25;-5.10;1.00
6178;DHT22;3122;48.208;11.174;2022-12-18T19:25:25;-5.10;1.00
6178;DHT22;3122;48.208;11.174;2022-12-18T19:30:28;-5.00;1.00
6178;DHT22;3122;48.208;11.174;2022-12-18T19:35:29;-5.00;1.00
6178;DHT22;3122;48.208;11.174;2022-12-18T19:40:29;-5.10;1.00
6178;DHT22;3122;48.208;11.174;2022-12-18T19:45:30;-5.10;1.00
6178;DHT22;3122;48.208;11.174;2022-12-18T19:50:31;-5.10;1.00
6178;DHT22;3122;48.208;11.174;2022-12-18T19:55:31;-5.00;1.00
6178;DHT22;3122;48.208;11.174;2022-12-18T20:00:32;-5.10;1.00
6178;DHT22;3122;48.208;11.174;2022-12-18T20:05:32;-5.00;1.00
6178;DHT22;3122;48.208;11.174;2022-12-18T20:10:33;-4.90;1.00
6178;DHT22;3122;48.208;11.174;2022-12-18T20:15:34;-5.00;1.00
6178;DHT22;3122;48.208;11.174;2022-12-18T20:20:35;-5.10;1.00
6178;DHT22;3122;48.208;11.174;2022-12-18T20:25:37;-5.10;1.00
6178;DHT22;3122;48.208;11.174;2022-12-18T20:30:38;-5.10;1.00
6178;DHT22;3122;48.208;11.174;2022-12-18T20:35:38;-5.10;1.00
6178;DHT22;3122;48.208;11.174;2022-12-18T20:40:41;-5.10;1.00
6178;DHT22;3122;48.208;11.174;2022-12-18T20:45:42;-5.10;1.00
6178;DHT22;3122;48.208;11.174;2022-12-18T20:50:43;-5.10;1.00
6178;DHT22;3122;48.208;11.174;2022-12-18T20:55:43;-5.10;1.00
6178;DHT22;3122;48.208;11.174;2022-12-18T21:00:44;-5.10;1.00
6178;DHT22;3122;48.208;11.174;2022-12-18T21:05:44;-5.00;1.00
6178;DHT22;3122;48.208;11.174;2022-12-18T21:10:45;-5.00;1.00
6178;DHT22;3122;48.208;11.174;2022-12-18T21:15:46;-5.10;1.00
6178;DHT22;3122;48.208;11.174;2022-12-18T21:20:46;-5.10;1.00
6178;DHT22;3122;48.208;11.174;2022-12-18T21:25:47;-5.10;1.00
6178;DHT22;3122;48.208;11.174;2022-12-18T21:30:47;-5.10;1.00
6178;DHT22;3122;48.208;11.174;2022-12-18T21:35:48;-5.10;1.00
6178;DHT22;3122;48.208;11.174;2022-12-18T21:40:48;-5.10;1.00
6178;DHT22;3122;48.208;11.174;2022-12-18T21:45:49;-5.10;1.00
6178;DHT22;3122;48.208;11.174;2022-12-18T21:50:50;-5.10;1.00
6178;DHT22;3122;48.208;11.174;2022-12-18T21:55:57;-5.00;1.00
6178;DHT22;3122;48.208;11.174;2022-12-18T22:00:58;-5.10;1.00
6178;DHT22;3122;48.208;11.174;2022-12-18T22:05:59;-5.10;1.00
6178;DHT22;3122;48.208;11.174;2022-12-18T22:10:59;-5.20;1.00
6178;DHT22;3122;48.208;11.174;2022-12-18T22:16:00;-5.20;1.00
6178;DHT22;3122;48.208;11.174;2022-12-18T22:21:02;-5.20;1.00
6178;DHT22;3122;48.208;11.174;2022-12-18T22:26:03;-5.30;1.00
6178;DHT22;3122;48.208;11.174;2022-12-18T22:31:04;-5.20;1.00
6178;DHT22;3122;48.208;11.174;2022-12-18T22:36:05;-5.30;1.00
6178;DHT22;3122;48.208;11.174;2022-12-18T22:41:06;-5.30;1.00
6178;DHT22;3122;48.208;11.174;2022-12-18T22:46:16;-5.30;1.00
6178;DHT22;3122;48.208;11.174;2022-12-18T22:51:18;-5.20;1.00
6178;DHT22;3122;48.208;11.174;2022-12-18T22:56:18;-5.10;1.00
6178;DHT22;3122;48.208;11.174;2022-12-18T23:01:21;-5.10;1.00
6178;DHT22;3122;48.208;11.174;2022-12-18T23:06:24;-5.10;1.00
6178;DHT22;3122;48.208;11.174;2022-12-18T23:11:25;-5.10;1.00
6178;DHT22;3122;48.208;11.174;2022-12-18T23:16:26;-5.00;1.00
6178;DHT22;3122;48.208;11.174;2022-12-18T23:21:27;-5.10;1.00
6178;DHT22;3122;48.208;11.174;2022-12-18T23:26:28;-5.10;1.00
6178;DHT22;3122;48.208;11.174;2022-12-18T23:31:36;-5.10;1.00
6178;DHT22;3122;48.208;11.174;2022-12-18T23:36:37;-5.00;1.00
6178;DHT22;3122;48.208;11.174;2022-12-18T23:41:38;-4.90;1.00
6178;DHT22;3122;48.208;11.174;2022-12-18T23:46:39;-4.90;1.00
6178;DHT22;3122;48.208;11.174;2022-12-18T23:51:39;-5.00;1.00
6178;DHT22;3122;48.208;11.174;2022-12-18T23:56:40;-5.10;1.00
